Columbus, WI

9:08 AM CST on December 10, 2016 (GMT -0600)
Grandview Court | | Change Station
Active Advisory: Winter Storm Watch

Elev 849 ft 43.32 °N, 89.03 °W | Updated 6 minutes ago

Clear
Clear
14.2 °F
Feels Like 14 °F
N
1.9
Wind Variable Wind from West
Gusts 5.6 mph

Today
High -- | Low -- °F
--% Chance of Precip.
Yesterday
High -- | Low -- °F
Precip. -- in
Pressure 30.49 in
Visibility 10.0 miles
Clouds Clear
Windchill 14 °F
Dew Point 11 °F
Humidity 86%
Rainfall 0.00 in
Snow Depth Not available.
7:18 AM 4:20 PM
Waxing Gibbous, 84% visible
METAR KUNU 101455Z AUTO 25006KT 10SM CLR M10/M13 A3049 RMK AO2 T11051130
Pressure 30.49 in
Visibility 10.0 miles
Clouds Clear
Windchill 14 °F
Dew Point 11 °F
Humidity 86%
Rainfall 0.00 in
Snow Depth Not available.
7:18 AM 4:20 PM
Waxing Gibbous, 84% visible
METAR KUNU 101455Z AUTO 25006KT 10SM CLR M10/M13 A3049 RMK AO2 T11051130

10-Day Weather Forecast

Almanac

Astronomy

Dec. 10, 2016 Rise Set
Actual Time
Civil Twilight
Nautical Twilight
Astronomical Twilight
Moon
Length of Visible Light
Length of Day
Tomorrow will be .
, % of the Moon is Illuminated

Today's Extremes

State Highs State Lows

Community

WunderPhotos

Upload Photos

1,956,549 photos uploaded!

WunderBlog® & News

Nearby

Air Quality

  Air Quality AQ Index Pollutant
Not available.

Snow Depth

Station Depth Elevation

Earthquake Activity

City Distance Mag. Time & Date
Minimum magnitude displayed is 2.5.

Coastal Water Temperatures

Place Temperature

Stations

Nearby Weather Stations

Station Location Temp. Windchill Dew Point Humidity Wind Precip. Elev Updated Type
                   

Watches & Warnings

Winter Storm Watch
Issued: 3:56 AM CST Dec. 10, 2016 – National Weather Service

... Winter Storm Watch now in effect from this evening through
Sunday evening...

The Winter Storm Watch is now in effect from this evening through
Sunday evening.

* Timing... accumulating snow developing toward evening and
continuing through Sunday.

* Snow accumulations... 3 to 4 inches tonight... with a storm total
of 6 to 9 inches possible.

* Winds... southeast winds 10 to 15 mph with gusts to 20 mph...
turning west later Sunday night into Monday morning.

* Impacts... hazardous travel conditions developing tonight
continuing into Sunday. Reduced visibility due to falling snow
and some drifting snow.

Precautionary/preparedness actions...

A Winter Storm Watch means there is a potential for significant
snow... sleet... or ice accumulations that may impact travel.
Continue to monitor the latest forecasts.